Terminal Aerodrome Forecast
Issued by NWS Grand Forks, ND

Home | Current Version | Previous Version | Text Only | Print | Product List | Glossary On
Versions: 1 2 3 4 5 6 7 8 9 10 11 12
000
FTUS43 KFGF 060500
TAFFAR
TAF
KFAR 060537Z 0606/0706 19012KT P6SM SCT080
     FM061000 26012KT P6SM SCT250
     FM061900 26012KT P6SM BKN120
     FM062300 21012KT P6SM BKN080=

USA.gov is the U.S. government's official web portal to all federal, state and local government web resources and services.